sensor_id;sensor_type;location;lat;lon;timestamp;temperature;humidity
3504;DHT22;1766;53.490;10.174;2022-10-19T00:01:57;19.00;48.80
3504;DHT22;1766;53.490;10.174;2022-10-19T00:03:59;19.00;48.70
3504;DHT22;1766;53.490;10.174;2022-10-19T00:06:09;19.00;48.60
3504;DHT22;1766;53.490;10.174;2022-10-19T00:08:14;19.00;48.70
3504;DHT22;1766;53.490;10.174;2022-10-19T00:10:15;19.10;48.60
3504;DHT22;1766;53.490;10.174;2022-10-19T00:12:31;19.10;48.80
3504;DHT22;1766;53.490;10.174;2022-10-19T00:14:33;19.10;48.70
3504;DHT22;1766;53.490;10.174;2022-10-19T00:16:36;19.10;48.80
3504;DHT22;1766;53.490;10.174;2022-10-19T00:18:39;19.00;49.00
3504;DHT22;1766;53.490;10.174;2022-10-19T00:20:42;19.00;49.10
3504;DHT22;1766;53.490;10.174;2022-10-19T00:22:44;19.00;48.90
3504;DHT22;1766;53.490;10.174;2022-10-19T00:24:51;19.00;49.10
3504;DHT22;1766;53.490;10.174;2022-10-19T00:26:53;19.00;49.10
3504;DHT22;1766;53.490;10.174;2022-10-19T00:28:55;19.00;49.10
3504;DHT22;1766;53.490;10.174;2022-10-19T00:31:01;19.10;49.30
3504;DHT22;1766;53.490;10.174;2022-10-19T00:33:04;19.00;49.30
3504;DHT22;1766;53.490;10.174;2022-10-19T00:35:06;19.10;49.20
3504;DHT22;1766;53.490;10.174;2022-10-19T00:37:08;19.10;49.40
3504;DHT22;1766;53.490;10.174;2022-10-19T00:39:11;19.10;49.40
3504;DHT22;1766;53.490;10.174;2022-10-19T00:41:17;19.10;49.50
3504;DHT22;1766;53.490;10.174;2022-10-19T00:43:22;19.10;49.60
3504;DHT22;1766;53.490;10.174;2022-10-19T00:45:25;19.10;49.60
3504;DHT22;1766;53.490;10.174;2022-10-19T00:47:27;19.00;49.40
3504;DHT22;1766;53.490;10.174;2022-10-19T00:49:32;19.10;49.60
3504;DHT22;1766;53.490;10.174;2022-10-19T00:51:40;19.10;49.70
3504;DHT22;1766;53.490;10.174;2022-10-19T00:53:43;19.10;49.70
3504;DHT22;1766;53.490;10.174;2022-10-19T00:55:45;19.10;49.60
3504;DHT22;1766;53.490;10.174;2022-10-19T00:57:48;19.10;49.60
3504;DHT22;1766;53.490;10.174;2022-10-19T00:59:50;19.10;49.70
3504;DHT22;1766;53.490;10.174;2022-10-19T01:01:53;19.00;49.80
3504;DHT22;1766;53.490;10.174;2022-10-19T01:03:55;19.10;50.00
3504;DHT22;1766;53.490;10.174;2022-10-19T01:05:57;19.00;49.90
3504;DHT22;1766;53.490;10.174;2022-10-19T01:08:00;19.00;50.00
3504;DHT22;1766;53.490;10.174;2022-10-19T01:10:03;19.10;50.10
3504;DHT22;1766;53.490;10.174;2022-10-19T01:12:11;19.00;50.00
3504;DHT22;1766;53.490;10.174;2022-10-19T01:14:30;19.10;50.10
3504;DHT22;1766;53.490;10.174;2022-10-19T01:16:46;19.10;50.00
3504;DHT22;1766;53.490;10.174;2022-10-19T01:18:57;19.10;50.00
3504;DHT22;1766;53.490;10.174;2022-10-19T01:21:18;19.20;50.00
3504;DHT22;1766;53.490;10.174;2022-10-19T01:23:42;19.10;49.90
3504;DHT22;1766;53.490;10.174;2022-10-19T01:26:02;19.10;50.00
3504;DHT22;1766;53.490;10.174;2022-10-19T01:28:23;19.10;49.90
3504;DHT22;1766;53.490;10.174;2022-10-19T01:30:44;19.10;50.00
3504;DHT22;1766;53.490;10.174;2022-10-19T01:32:57;19.10;50.10
3504;DHT22;1766;53.490;10.174;2022-10-19T01:35:07;19.10;50.00
3504;DHT22;1766;53.490;10.174;2022-10-19T01:37:16;19.00;49.90
3504;DHT22;1766;53.490;10.174;2022-10-19T01:39:25;19.10;50.10
3504;DHT22;1766;53.490;10.174;2022-10-19T01:41:39;19.10;50.10
3504;DHT22;1766;53.490;10.174;2022-10-19T01:43:47;19.00;50.20
3504;DHT22;1766;53.490;10.174;2022-10-19T01:46:01;19.10;50.00
3504;DHT22;1766;53.490;10.174;2022-10-19T01:48:11;19.10;50.00
3504;DHT22;1766;53.490;10.174;2022-10-19T01:50:19;19.10;50.00
3504;DHT22;1766;53.490;10.174;2022-10-19T01:52:26;19.20;50.10
3504;DHT22;1766;53.490;10.174;2022-10-19T01:54:33;19.10;50.00
3504;DHT22;1766;53.490;10.174;2022-10-19T01:56:39;19.10;50.00
3504;DHT22;1766;53.490;10.174;2022-10-19T01:58:43;19.10;49.90
3504;DHT22;1766;53.490;10.174;2022-10-19T02:00:47;19.10;49.90
3504;DHT22;1766;53.490;10.174;2022-10-19T02:02:53;19.10;49.90
3504;DHT22;1766;53.490;10.174;2022-10-19T02:04:56;19.00;49.80
3504;DHT22;1766;53.490;10.174;2022-10-19T02:06:59;19.00;49.90
3504;DHT22;1766;53.490;10.174;2022-10-19T02:09:02;19.00;49.90
3504;DHT22;1766;53.490;10.174;2022-10-19T02:11:05;18.90;49.70
3504;DHT22;1766;53.490;10.174;2022-10-19T02:13:07;18.90;49.60
3504;DHT22;1766;53.490;10.174;2022-10-19T02:15:13;18.90;49.80
3504;DHT22;1766;53.490;10.174;2022-10-19T02:17:20;18.90;49.80
3504;DHT22;1766;53.490;10.174;2022-10-19T02:19:27;19.00;49.80
3504;DHT22;1766;53.490;10.174;2022-10-19T02:21:30;19.00;49.70
3504;DHT22;1766;53.490;10.174;2022-10-19T02:23:32;19.00;49.70
3504;DHT22;1766;53.490;10.174;2022-10-19T02:25:35;19.00;49.60
3504;DHT22;1766;53.490;10.174;2022-10-19T02:27:38;19.00;49.60
3504;DHT22;1766;53.490;10.174;2022-10-19T02:29:41;19.00;49.60
3504;DHT22;1766;53.490;10.174;2022-10-19T02:31:43;19.00;49.50
3504;DHT22;1766;53.490;10.174;2022-10-19T02:33:45;19.00;49.50
3504;DHT22;1766;53.490;10.174;2022-10-19T02:35:48;19.10;49.40
3504;DHT22;1766;53.490;10.174;2022-10-19T02:37:50;19.00;49.30
3504;DHT22;1766;53.490;10.174;2022-10-19T02:39:52;19.00;49.10
3504;DHT22;1766;53.490;10.174;2022-10-19T02:41:59;18.90;49.20
3504;DHT22;1766;53.490;10.174;2022-10-19T02:44:08;18.90;49.30
3504;DHT22;1766;53.490;10.174;2022-10-19T02:46:17;18.90;49.30
3504;DHT22;1766;53.490;10.174;2022-10-19T02:48:23;19.00;49.30
3504;DHT22;1766;53.490;10.174;2022-10-19T02:50:25;18.90;49.10
3504;DHT22;1766;53.490;10.174;2022-10-19T02:52:29;18.90;48.90
3504;DHT22;1766;53.490;10.174;2022-10-19T02:54:30;18.90;48.90
3504;DHT22;1766;53.490;10.174;2022-10-19T02:56:33;18.90;48.90
3504;DHT22;1766;53.490;10.174;2022-10-19T02:58:35;18.80;48.90
3504;DHT22;1766;53.490;10.174;2022-10-19T03:00:40;18.90;48.70
3504;DHT22;1766;53.490;10.174;2022-10-19T03:02:43;18.90;48.60
3504;DHT22;1766;53.490;10.174;2022-10-19T03:04:45;18.90;48.50
3504;DHT22;1766;53.490;10.174;2022-10-19T03:06:47;18.90;48.50
3504;DHT22;1766;53.490;10.174;2022-10-19T03:08:50;18.90;48.20
3504;DHT22;1766;53.490;10.174;2022-10-19T03:10:52;18.80;48.30
3504;DHT22;1766;53.490;10.174;2022-10-19T03:12:56;18.80;48.30
3504;DHT22;1766;53.490;10.174;2022-10-19T03:14:58;18.80;48.30
3504;DHT22;1766;53.490;10.174;2022-10-19T03:17:00;18.80;48.10
3504;DHT22;1766;53.490;10.174;2022-10-19T03:19:02;18.80;48.10
3504;DHT22;1766;53.490;10.174;2022-10-19T03:21:06;18.80;48.00
3504;DHT22;1766;53.490;10.174;2022-10-19T03:23:09;18.80;48.20
3504;DHT22;1766;53.490;10.174;2022-10-19T03:25:12;18.70;48.00
3504;DHT22;1766;53.490;10.174;2022-10-19T03:27:14;18.80;48.10
3504;DHT22;1766;53.490;10.174;2022-10-19T03:29:15;18.80;48.00
3504;DHT22;1766;53.490;10.174;2022-10-19T03:31:18;18.80;47.90
3504;DHT22;1766;53.490;10.174;2022-10-19T03:33:19;18.80;48.00
3504;DHT22;1766;53.490;10.174;2022-10-19T03:35:21;18.80;47.80
3504;DHT22;1766;53.490;10.174;2022-10-19T03:37:23;18.80;47.80
3504;DHT22;1766;53.490;10.174;2022-10-19T03:39:25;18.80;47.70
3504;DHT22;1766;53.490;10.174;2022-10-19T03:41:29;18.80;47.60
3504;DHT22;1766;53.490;10.174;2022-10-19T03:43:33;18.80;47.70
3504;DHT22;1766;53.490;10.174;2022-10-19T03:45:35;18.90;47.50
3504;DHT22;1766;53.490;10.174;2022-10-19T03:47:37;18.80;47.30
3504;DHT22;1766;53.490;10.174;2022-10-19T03:49:38;18.80;47.30
3504;DHT22;1766;53.490;10.174;2022-10-19T03:51:43;18.80;47.20
3504;DHT22;1766;53.490;10.174;2022-10-19T03:53:45;18.80;47.20
3504;DHT22;1766;53.490;10.174;2022-10-19T03:55:47;18.80;47.20
3504;DHT22;1766;53.490;10.174;2022-10-19T03:57:50;18.80;47.00
3504;DHT22;1766;53.490;10.174;2022-10-19T03:59:52;18.80;46.90
3504;DHT22;1766;53.490;10.174;2022-10-19T04:01:53;18.80;46.70
3504;DHT22;1766;53.490;10.174;2022-10-19T04:03:56;18.80;46.60
3504;DHT22;1766;53.490;10.174;2022-10-19T04:06:01;18.80;46.70
3504;DHT22;1766;53.490;10.174;2022-10-19T04:08:04;18.80;46.60
3504;DHT22;1766;53.490;10.174;2022-10-19T04:10:06;18.80;46.50
3504;DHT22;1766;53.490;10.174;2022-10-19T04:12:20;18.80;46.50
3504;DHT22;1766;53.490;10.174;2022-10-19T04:14:23;18.90;46.30
3504;DHT22;1766;53.490;10.174;2022-10-19T04:16:27;18.80;46.20
3504;DHT22;1766;53.490;10.174;2022-10-19T04:18:29;18.90;46.30
3504;DHT22;1766;53.490;10.174;2022-10-19T04:20:31;18.90;46.10
3504;DHT22;1766;53.490;10.174;2022-10-19T04:22:33;18.80;46.10
3504;DHT22;1766;53.490;10.174;2022-10-19T04:24:35;18.80;45.90
3504;DHT22;1766;53.490;10.174;2022-10-19T04:26:39;18.90;46.20
3504;DHT22;1766;53.490;10.174;2022-10-19T04:28:42;18.80;46.10
3504;DHT22;1766;53.490;10.174;2022-10-19T04:30:45;18.90;46.10
3504;DHT22;1766;53.490;10.174;2022-10-19T04:32:47;18.80;45.90
3504;DHT22;1766;53.490;10.174;2022-10-19T04:34:48;18.80;45.90
3504;DHT22;1766;53.490;10.174;2022-10-19T04:36:51;18.80;45.90
3504;DHT22;1766;53.490;10.174;2022-10-19T04:38:53;18.80;46.00
3504;DHT22;1766;53.490;10.174;2022-10-19T04:40:59;18.80;45.80
3504;DHT22;1766;53.490;10.174;2022-10-19T04:43:02;18.80;46.00
3504;DHT22;1766;53.490;10.174;2022-10-19T04:45:05;18.80;46.10
3504;DHT22;1766;53.490;10.174;2022-10-19T04:47:08;18.80;46.10
3504;DHT22;1766;53.490;10.174;2022-10-19T04:49:10;18.80;46.10
3504;DHT22;1766;53.490;10.174;2022-10-19T04:51:12;18.80;46.10
3504;DHT22;1766;53.490;10.174;2022-10-19T04:53:14;18.70;46.00
3504;DHT22;1766;53.490;10.174;2022-10-19T04:55:17;18.70;46.00
3504;DHT22;1766;53.490;10.174;2022-10-19T04:57:18;18.70;46.10
3504;DHT22;1766;53.490;10.174;2022-10-19T04:59:20;18.70;46.20
3504;DHT22;1766;53.490;10.174;2022-10-19T05:01:23;18.70;46.20
3504;DHT22;1766;53.490;10.174;2022-10-19T05:03:27;18.70;46.30
3504;DHT22;1766;53.490;10.174;2022-10-19T05:05:28;18.70;46.20
3504;DHT22;1766;53.490;10.174;2022-10-19T05:07:31;18.70;46.10
3504;DHT22;1766;53.490;10.174;2022-10-19T05:09:33;18.70;46.10
3504;DHT22;1766;53.490;10.174;2022-10-19T05:11:35;18.70;46.00
3504;DHT22;1766;53.490;10.174;2022-10-19T05:13:37;18.70;46.10
3504;DHT22;1766;53.490;10.174;2022-10-19T05:15:39;18.60;46.00
3504;DHT22;1766;53.490;10.174;2022-10-19T05:17:40;18.60;46.00
3504;DHT22;1766;53.490;10.174;2022-10-19T05:19:43;18.80;46.20
3504;DHT22;1766;53.490;10.174;2022-10-19T05:21:45;18.70;46.00
3504;DHT22;1766;53.490;10.174;2022-10-19T05:23:50;18.70;46.20
3504;DHT22;1766;53.490;10.174;2022-10-19T05:25:59;18.70;46.30
3504;DHT22;1766;53.490;10.174;2022-10-19T05:28:02;18.70;46.30
3504;DHT22;1766;53.490;10.174;2022-10-19T05:30:04;18.70;46.20
3504;DHT22;1766;53.490;10.174;2022-10-19T05:32:07;18.70;46.40
3504;DHT22;1766;53.490;10.174;2022-10-19T05:34:09;18.70;46.20
3504;DHT22;1766;53.490;10.174;2022-10-19T05:36:15;18.70;46.30
3504;DHT22;1766;53.490;10.174;2022-10-19T05:38:18;18.70;46.30
3504;DHT22;1766;53.490;10.174;2022-10-19T05:40:20;18.70;46.30
3504;DHT22;1766;53.490;10.174;2022-10-19T05:42:22;18.70;46.30
3504;DHT22;1766;53.490;10.174;2022-10-19T05:44:23;18.70;46.20
3504;DHT22;1766;53.490;10.174;2022-10-19T05:46:27;18.70;46.20
3504;DHT22;1766;53.490;10.174;2022-10-19T05:48:30;18.70;46.40
3504;DHT22;1766;53.490;10.174;2022-10-19T05:50:33;18.70;46.30
3504;DHT22;1766;53.490;10.174;2022-10-19T05:52:36;18.70;46.20
3504;DHT22;1766;53.490;10.174;2022-10-19T05:54:38;18.70;46.20
3504;DHT22;1766;53.490;10.174;2022-10-19T05:56:40;18.70;46.30
3504;DHT22;1766;53.490;10.174;2022-10-19T05:58:43;18.70;46.40
3504;DHT22;1766;53.490;10.174;2022-10-19T06:00:50;18.70;46.30
3504;DHT22;1766;53.490;10.174;2022-10-19T06:02:52;18.60;46.40
3504;DHT22;1766;53.490;10.174;2022-10-19T06:04:54;18.70;46.30
3504;DHT22;1766;53.490;10.174;2022-10-19T06:06:56;18.70;46.20
3504;DHT22;1766;53.490;10.174;2022-10-19T06:08:59;18.70;46.20
3504;DHT22;1766;53.490;10.174;2022-10-19T06:11:05;18.70;46.20
3504;DHT22;1766;53.490;10.174;2022-10-19T06:13:09;18.70;46.30
3504;DHT22;1766;53.490;10.174;2022-10-19T06:15:11;18.70;46.30
3504;DHT22;1766;53.490;10.174;2022-10-19T06:17:13;18.70;46.10
3504;DHT22;1766;53.490;10.174;2022-10-19T06:19:15;18.80;46.20
3504;DHT22;1766;53.490;10.174;2022-10-19T06:21:18;18.80;46.80
3504;DHT22;1766;53.490;10.174;2022-10-19T06:23:21;18.70;46.90
3504;DHT22;1766;53.490;10.174;2022-10-19T06:25:24;18.80;46.40
3504;DHT22;1766;53.490;10.174;2022-10-19T06:27:26;18.80;46.40
3504;DHT22;1766;53.490;10.174;2022-10-19T06:29:28;18.80;46.40
3504;DHT22;1766;53.490;10.174;2022-10-19T06:31:32;18.90;46.40
3504;DHT22;1766;53.490;10.174;2022-10-19T06:33:37;18.80;46.50
3504;DHT22;1766;53.490;10.174;2022-10-19T06:35:39;18.90;46.20
3504;DHT22;1766;53.490;10.174;2022-10-19T06:37:42;18.90;46.40
3504;DHT22;1766;53.490;10.174;2022-10-19T06:39:44;19.00;46.40
3504;DHT22;1766;53.490;10.174;2022-10-19T06:41:47;18.90;46.30
3504;DHT22;1766;53.490;10.174;2022-10-19T06:43:50;19.00;46.40
3504;DHT22;1766;53.490;10.174;2022-10-19T06:45:52;18.90;46.40
3504;DHT22;1766;53.490;10.174;2022-10-19T06:47:54;19.00;46.30
3504;DHT22;1766;53.490;10.174;2022-10-19T06:49:55;19.00;46.20
3504;DHT22;1766;53.490;10.174;2022-10-19T06:51:57;19.00;46.20
3504;DHT22;1766;53.490;10.174;2022-10-19T06:53:59;18.90;46.00
3504;DHT22;1766;53.490;10.174;2022-10-19T06:56:03;19.00;46.10
3504;DHT22;1766;53.490;10.174;2022-10-19T06:58:07;18.90;46.10
3504;DHT22;1766;53.490;10.174;2022-10-19T07:00:10;18.80;46.00
3504;DHT22;1766;53.490;10.174;2022-10-19T07:02:12;18.80;46.10
3504;DHT22;1766;53.490;10.174;2022-10-19T07:04:14;18.90;46.10
3504;DHT22;1766;53.490;10.174;2022-10-19T07:06:16;18.70;46.10
3504;DHT22;1766;53.490;10.174;2022-10-19T07:08:18;18.70;46.10
3504;DHT22;1766;53.490;10.174;2022-10-19T07:10:20;18.70;46.20
3504;DHT22;1766;53.490;10.174;2022-10-19T07:12:21;18.70;46.20
3504;DHT22;1766;53.490;10.174;2022-10-19T07:14:25;18.60;46.20
3504;DHT22;1766;53.490;10.174;2022-10-19T07:16:27;18.60;46.50
3504;DHT22;1766;53.490;10.174;2022-10-19T07:18:29;18.60;46.40
3504;DHT22;1766;53.490;10.174;2022-10-19T07:20:31;18.60;46.60
3504;DHT22;1766;53.490;10.174;2022-10-19T07:22:33;18.70;46.70
3504;DHT22;1766;53.490;10.174;2022-10-19T07:24:35;18.70;46.70
3504;DHT22;1766;53.490;10.174;2022-10-19T07:26:37;18.80;46.70
3504;DHT22;1766;53.490;10.174;2022-10-19T07:28:41;18.70;46.70
3504;DHT22;1766;53.490;10.174;2022-10-19T07:30:45;18.70;46.90
3504;DHT22;1766;53.490;10.174;2022-10-19T07:32:47;18.70;46.80
3504;DHT22;1766;53.490;10.174;2022-10-19T07:34:49;18.70;46.70
3504;DHT22;1766;53.490;10.174;2022-10-19T07:36:51;18.70;46.80
3504;DHT22;1766;53.490;10.174;2022-10-19T07:38:54;18.70;46.80
3504;DHT22;1766;53.490;10.174;2022-10-19T07:41:01;18.80;46.80
3504;DHT22;1766;53.490;10.174;2022-10-19T07:43:04;18.70;47.00
3504;DHT22;1766;53.490;10.174;2022-10-19T07:45:06;18.80;46.90
3504;DHT22;1766;53.490;10.174;2022-10-19T07:47:09;18.80;47.00
3504;DHT22;1766;53.490;10.174;2022-10-19T07:49:14;18.80;46.90
3504;DHT22;1766;53.490;10.174;2022-10-19T07:51:18;18.90;47.10
3504;DHT22;1766;53.490;10.174;2022-10-19T07:53:21;18.90;47.00
3504;DHT22;1766;53.490;10.174;2022-10-19T07:55:23;18.90;47.20
3504;DHT22;1766;53.490;10.174;2022-10-19T07:57:35;18.90;46.90
3504;DHT22;1766;53.490;10.174;2022-10-19T07:59:36;18.90;47.50
3504;DHT22;1766;53.490;10.174;2022-10-19T08:01:39;19.00;47.00
3504;DHT22;1766;53.490;10.174;2022-10-19T08:03:44;19.00;47.00
3504;DHT22;1766;53.490;10.174;2022-10-19T08:05:47;18.90;47.00
3504;DHT22;1766;53.490;10.174;2022-10-19T08:07:48;19.00;46.90
3504;DHT22;1766;53.490;10.174;2022-10-19T08:09:50;19.10;46.90
3504;DHT22;1766;53.490;10.174;2022-10-19T08:11:52;19.00;46.90
3504;DHT22;1766;53.490;10.174;2022-10-19T08:13:54;19.10;46.90
3504;DHT22;1766;53.490;10.174;2022-10-19T08:15:59;19.10;47.00
3504;DHT22;1766;53.490;10.174;2022-10-19T08:18:01;19.10;46.80
3504;DHT22;1766;53.490;10.174;2022-10-19T08:20:06;19.20;46.80
3504;DHT22;1766;53.490;10.174;2022-10-19T08:22:08;19.20;46.80
3504;DHT22;1766;53.490;10.174;2022-10-19T08:24:12;19.20;46.80
3504;DHT22;1766;53.490;10.174;2022-10-19T08:26:15;19.20;46.80
3504;DHT22;1766;53.490;10.174;2022-10-19T08:28:17;19.20;46.40
3504;DHT22;1766;53.490;10.174;2022-10-19T08:30:19;19.30;46.60
3504;DHT22;1766;53.490;10.174;2022-10-19T08:32:23;19.30;46.50
3504;DHT22;1766;53.490;10.174;2022-10-19T08:34:25;19.40;46.60
3504;DHT22;1766;53.490;10.174;2022-10-19T08:36:29;19.40;46.50
3504;DHT22;1766;53.490;10.174;2022-10-19T08:38:33;19.40;46.70
3504;DHT22;1766;53.490;10.174;2022-10-19T08:40:35;19.40;46.50
3504;DHT22;1766;53.490;10.174;2022-10-19T08:42:43;19.50;46.40
3504;DHT22;1766;53.490;10.174;2022-10-19T08:45:02;19.50;46.50
3504;DHT22;1766;53.490;10.174;2022-10-19T08:47:20;19.50;46.40
3504;DHT22;1766;53.490;10.174;2022-10-19T08:49:29;19.60;46.30
3504;DHT22;1766;53.490;10.174;2022-10-19T08:51:37;19.60;46.30
3504;DHT22;1766;53.490;10.174;2022-10-19T08:53:47;19.60;46.30
3504;DHT22;1766;53.490;10.174;2022-10-19T08:56:03;19.60;46.20
3504;DHT22;1766;53.490;10.174;2022-10-19T08:58:24;19.60;46.20
3504;DHT22;1766;53.490;10.174;2022-10-19T09:00:38;19.70;46.20
3504;DHT22;1766;53.490;10.174;2022-10-19T09:02:52;19.80;46.20
3504;DHT22;1766;53.490;10.174;2022-10-19T09:05:01;19.80;46.70
3504;DHT22;1766;53.490;10.174;2022-10-19T09:07:22;20.00;46.20
3504;DHT22;1766;53.490;10.174;2022-10-19T09:09:29;20.10;46.40
3504;DHT22;1766;53.490;10.174;2022-10-19T09:11:34;20.30;46.30
3504;DHT22;1766;53.490;10.174;2022-10-19T09:13:41;20.30;46.20
3504;DHT22;1766;53.490;10.174;2022-10-19T09:15:46;20.40;46.10
3504;DHT22;1766;53.490;10.174;2022-10-19T09:17:50;20.40;45.90
3504;DHT22;1766;53.490;10.174;2022-10-19T09:19:52;20.50;45.60
3504;DHT22;1766;53.490;10.174;2022-10-19T09:21:56;20.60;45.60
3504;DHT22;1766;53.490;10.174;2022-10-19T09:24:04;20.70;45.70
3504;DHT22;1766;53.490;10.174;2022-10-19T09:26:12;20.70;45.50
3504;DHT22;1766;53.490;10.174;2022-10-19T09:28:26;20.80;45.40
3504;DHT22;1766;53.490;10.174;2022-10-19T09:30:36;20.90;45.20
3504;DHT22;1766;53.490;10.174;2022-10-19T09:32:39;21.00;45.00
3504;DHT22;1766;53.490;10.174;2022-10-19T09:34:44;21.00;44.70
3504;DHT22;1766;53.490;10.174;2022-10-19T09:36:51;21.00;44.60
3504;DHT22;1766;53.490;10.174;2022-10-19T09:38:55;21.00;44.40
3504;DHT22;1766;53.490;10.174;2022-10-19T09:41:10;21.10;44.10
3504;DHT22;1766;53.490;10.174;2022-10-19T09:43:16;21.00;44.10
3504;DHT22;1766;53.490;10.174;2022-10-19T09:45:28;21.00;43.70
3504;DHT22;1766;53.490;10.174;2022-10-19T09:47:35;20.90;43.70
3504;DHT22;1766;53.490;10.174;2022-10-19T09:49:39;20.90;43.70
3504;DHT22;1766;53.490;10.174;2022-10-19T09:51:46;20.90;43.70
3504;DHT22;1766;53.490;10.174;2022-10-19T09:53:52;21.00;43.70
3504;DHT22;1766;53.490;10.174;2022-10-19T09:56:00;21.10;43.60
3504;DHT22;1766;53.490;10.174;2022-10-19T09:58:16;21.10;43.40
3504;DHT22;1766;53.490;10.174;2022-10-19T10:00:21;21.40;43.40
3504;DHT22;1766;53.490;10.174;2022-10-19T10:02:29;21.30;43.10
3504;DHT22;1766;53.490;10.174;2022-10-19T10:04:32;21.40;42.90
3504;DHT22;1766;53.490;10.174;2022-10-19T10:06:38;21.40;42.40
3504;DHT22;1766;53.490;10.174;2022-10-19T10:08:47;21.40;42.40
3504;DHT22;1766;53.490;10.174;2022-10-19T10:10:56;21.40;42.30
3504;DHT22;1766;53.490;10.174;2022-10-19T10:13:08;21.40;42.20
3504;DHT22;1766;53.490;10.174;2022-10-19T10:15:16;21.50;42.20
3504;DHT22;1766;53.490;10.174;2022-10-19T10:17:20;21.40;42.00
3504;DHT22;1766;53.490;10.174;2022-10-19T10:19:27;21.30;41.80
3504;DHT22;1766;53.490;10.174;2022-10-19T10:21:31;21.30;41.80
3504;DHT22;1766;53.490;10.174;2022-10-19T10:23:35;21.30;41.70
3504;DHT22;1766;53.490;10.174;2022-10-19T10:25:37;21.20;41.50
3504;DHT22;1766;53.490;10.174;2022-10-19T10:27:56;21.20;41.60
3504;DHT22;1766;53.490;10.174;2022-10-19T10:30:04;21.10;41.40
3504;DHT22;1766;53.490;10.174;2022-10-19T10:32:10;21.20;41.40
3504;DHT22;1766;53.490;10.174;2022-10-19T10:34:18;21.10;41.20
3504;DHT22;1766;53.490;10.174;2022-10-19T10:36:30;21.20;41.20
3504;DHT22;1766;53.490;10.174;2022-10-19T10:38:34;21.20;41.10
3504;DHT22;1766;53.490;10.174;2022-10-19T10:40:39;21.10;41.00
3504;DHT22;1766;53.490;10.174;2022-10-19T10:42:46;21.10;41.00
3504;DHT22;1766;53.490;10.174;2022-10-19T10:44:52;21.10;41.00
3504;DHT22;1766;53.490;10.174;2022-10-19T10:46:58;21.10;41.10
3504;DHT22;1766;53.490;10.174;2022-10-19T10:49:02;21.10;41.10
3504;DHT22;1766;53.490;10.174;2022-10-19T10:51:17;21.10;41.30
3504;DHT22;1766;53.490;10.174;2022-10-19T10:53:32;21.00;41.40
3504;DHT22;1766;53.490;10.174;2022-10-19T10:55:36;21.10;41.60
3504;DHT22;1766;53.490;10.174;2022-10-19T10:57:40;21.20;41.40
3504;DHT22;1766;53.490;10.174;2022-10-19T10:59:53;21.30;41.60
3504;DHT22;1766;53.490;10.174;2022-10-19T11:02:01;21.30;41.30
3504;DHT22;1766;53.490;10.174;2022-10-19T11:04:08;21.30;41.00
3504;DHT22;1766;53.490;10.174;2022-10-19T11:06:13;21.30;41.10
3504;DHT22;1766;53.490;10.174;2022-10-19T11:08:23;21.40;41.20
3504;DHT22;1766;53.490;10.174;2022-10-19T11:10:30;21.50;41.30
3504;DHT22;1766;53.490;10.174;2022-10-19T11:12:37;21.70;41.60
3504;DHT22;1766;53.490;10.174;2022-10-19T11:14:48;22.30;42.30
3504;DHT22;1766;53.490;10.174;2022-10-19T11:16:54;24.20;41.10
3504;DHT22;1766;53.490;10.174;2022-10-19T11:19:04;26.40;38.40
3504;DHT22;1766;53.490;10.174;2022-10-19T11:21:09;28.40;35.50
3504;DHT22;1766;53.490;10.174;2022-10-19T11:23:16;30.20;33.10
3504;DHT22;1766;53.490;10.174;2022-10-19T11:25:25;31.90;31.00
3504;DHT22;1766;53.490;10.174;2022-10-19T11:27:42;33.30;29.40
3504;DHT22;1766;53.490;10.174;2022-10-19T11:29:57;34.30;27.90
3504;DHT22;1766;53.490;10.174;2022-10-19T11:32:10;34.20;27.20
3504;DHT22;1766;53.490;10.174;2022-10-19T11:34:30;32.90;27.50
3504;DHT22;1766;53.490;10.174;2022-10-19T11:36:46;31.30;28.30
3504;DHT22;1766;53.490;10.174;2022-10-19T11:38:59;29.80;29.10
3504;DHT22;1766;53.490;10.174;2022-10-19T11:41:15;28.90;29.80
3504;DHT22;1766;53.490;10.174;2022-10-19T11:43:32;29.00;30.00
3504;DHT22;1766;53.490;10.174;2022-10-19T11:45:46;29.00;29.50
3504;DHT22;1766;53.490;10.174;2022-10-19T11:48:03;28.60;29.60
3504;DHT22;1766;53.490;10.174;2022-10-19T11:50:26;28.00;29.80
3504;DHT22;1766;53.490;10.174;2022-10-19T11:52:34;27.50;30.30
3504;DHT22;1766;53.490;10.174;2022-10-19T11:54:55;27.30;30.40
3504;DHT22;1766;53.490;10.174;2022-10-19T11:57:15;26.80;30.70
3504;DHT22;1766;53.490;10.174;2022-10-19T11:59:28;26.30;31.30
3504;DHT22;1766;53.490;10.174;2022-10-19T12:01:43;26.10;31.80
3504;DHT22;1766;53.490;10.174;2022-10-19T12:04:02;26.10;32.10
3504;DHT22;1766;53.490;10.174;2022-10-19T12:06:24;26.30;32.30
3504;DHT22;1766;53.490;10.174;2022-10-19T12:08:40;27.00;32.70
3504;DHT22;1766;53.490;10.174;2022-10-19T12:10:55;27.60;31.30
3504;DHT22;1766;53.490;10.174;2022-10-19T12:13:04;28.30;30.60
3504;DHT22;1766;53.490;10.174;2022-10-19T12:15:19;28.80;30.00
3504;DHT22;1766;53.490;10.174;2022-10-19T12:17:27;29.30;29.50
3504;DHT22;1766;53.490;10.174;2022-10-19T12:19:37;29.80;29.10
3504;DHT22;1766;53.490;10.174;2022-10-19T12:21:41;30.40;28.40
3504;DHT22;1766;53.490;10.174;2022-10-19T12:23:44;30.90;27.90
3504;DHT22;1766;53.490;10.174;2022-10-19T12:25:47;31.30;27.40
3504;DHT22;1766;53.490;10.174;2022-10-19T12:27:50;31.70;26.70
3504;DHT22;1766;53.490;10.174;2022-10-19T12:29:52;32.10;26.20
3504;DHT22;1766;53.490;10.174;2022-10-19T12:31:56;32.50;25.60
3504;DHT22;1766;53.490;10.174;2022-10-19T12:34:05;32.90;25.10
3504;DHT22;1766;53.490;10.174;2022-10-19T12:36:18;33.30;24.80
3504;DHT22;1766;53.490;10.174;2022-10-19T12:38:31;33.70;24.60
3504;DHT22;1766;53.490;10.174;2022-10-19T12:40:42;34.20;24.30
3504;DHT22;1766;53.490;10.174;2022-10-19T12:42:55;34.50;23.80
3504;DHT22;1766;53.490;10.174;2022-10-19T12:45:12;34.60;23.60
3504;DHT22;1766;53.490;10.174;2022-10-19T12:47:20;34.50;23.40
3504;DHT22;1766;53.490;10.174;2022-10-19T12:49:42;34.90;23.90
3504;DHT22;1766;53.490;10.174;2022-10-19T12:51:46;34.50;23.60
3504;DHT22;1766;53.490;10.174;2022-10-19T12:53:48;34.20;23.40
3504;DHT22;1766;53.490;10.174;2022-10-19T12:55:58;34.10;23.10
3504;DHT22;1766;53.490;10.174;2022-10-19T12:58:03;33.60;23.30
3504;DHT22;1766;53.490;10.174;2022-10-19T13:00:19;33.00;23.60
3504;DHT22;1766;53.490;10.174;2022-10-19T13:02:25;32.10;23.70
3504;DHT22;1766;53.490;10.174;2022-10-19T13:04:30;31.30;24.30
3504;DHT22;1766;53.490;10.174;2022-10-19T13:06:40;30.50;24.80
3504;DHT22;1766;53.490;10.174;2022-10-19T13:08:53;29.70;25.20
3504;DHT22;1766;53.490;10.174;2022-10-19T13:11:03;29.10;25.50
3504;DHT22;1766;53.490;10.174;2022-10-19T13:15:51;29.10;26.00
3504;DHT22;1766;53.490;10.174;2022-10-19T13:17:53;29.40;25.90
3504;DHT22;1766;53.490;10.174;2022-10-19T13:22:43;29.90;25.90
3504;DHT22;1766;53.490;10.174;2022-10-19T13:27:26;30.50;25.40
3504;DHT22;1766;53.490;10.174;2022-10-19T13:29:38;30.40;25.40
3504;DHT22;1766;53.490;10.174;2022-10-19T13:31:43;30.10;25.40
3504;DHT22;1766;53.490;10.174;2022-10-19T13:33:48;29.60;25.40
3504;DHT22;1766;53.490;10.174;2022-10-19T13:36:05;29.10;25.80